createdAt,value
2022-07-31T00:01:10.744Z,99.90
2022-07-31T00:03:39.639Z,99.90
2022-07-31T00:06:08.654Z,99.90
2022-07-31T00:08:37.204Z,99.90
2022-07-31T00:11:06.039Z,99.90
2022-07-31T00:13:57.142Z,99.90
2022-07-31T00:16:25.202Z,99.90
2022-07-31T00:18:53.726Z,99.90
2022-07-31T00:21:22.470Z,99.90
2022-07-31T00:23:51.269Z,99.90
2022-07-31T00:26:20.029Z,99.90
2022-07-31T00:28:49.501Z,99.90
2022-07-31T00:31:18.458Z,99.90
2022-07-31T00:33:48.645Z,99.90
2022-07-31T00:36:17.266Z,99.90
2022-07-31T00:38:46.021Z,99.90
2022-07-31T00:41:15.000Z,99.90
2022-07-31T00:43:43.580Z,99.90
2022-07-31T00:46:14.402Z,99.90
2022-07-31T00:48:43.506Z,99.90
2022-07-31T00:51:14.357Z,99.90
2022-07-31T00:53:42.829Z,99.90
2022-07-31T00:56:11.427Z,99.90
2022-07-31T00:58:40.099Z,99.90
2022-07-31T01:01:08.971Z,99.90
2022-07-31T01:03:37.889Z,99.90
2022-07-31T01:06:11.194Z,99.90
2022-07-31T01:08:41.454Z,99.90
2022-07-31T01:11:18.833Z,99.90
2022-07-31T01:13:53.966Z,99.90
2022-07-31T01:16:25.725Z,99.90
2022-07-31T01:18:57.133Z,99.90
2022-07-31T01:21:37.838Z,99.90
2022-07-31T01:24:41.642Z,99.90
2022-07-31T01:27:27.257Z,99.90
2022-07-31T01:30:02.732Z,99.90
2022-07-31T01:32:38.816Z,99.90
2022-07-31T01:35:16.841Z,99.90
2022-07-31T01:37:53.521Z,99.90
2022-07-31T01:40:29.016Z,99.90
2022-07-31T01:43:07.022Z,99.90
2022-07-31T01:45:40.263Z,99.90
2022-07-31T01:48:14.671Z,99.90
2022-07-31T01:50:46.350Z,99.90
2022-07-31T01:53:20.741Z,99.90
2022-07-31T01:55:56.515Z,99.90
2022-07-31T01:58:37.903Z,99.90
2022-07-31T02:01:11.450Z,99.90
2022-07-31T02:03:44.026Z,99.90
2022-07-31T02:06:18.064Z,99.90
2022-07-31T02:08:50.656Z,99.90
2022-07-31T02:11:21.920Z,99.90
2022-07-31T02:13:51.434Z,99.90
2022-07-31T02:16:22.856Z,99.90
2022-07-31T02:18:55.652Z,99.90
2022-07-31T02:21:27.004Z,99.90
2022-07-31T02:23:57.555Z,99.90
2022-07-31T02:26:29.130Z,99.90
2022-07-31T02:28:59.283Z,99.90
2022-07-31T02:31:33.241Z,99.90
2022-07-31T02:34:02.345Z,99.90
2022-07-31T02:36:34.453Z,99.90
2022-07-31T02:39:06.574Z,99.90
2022-07-31T02:41:37.050Z,99.90
2022-07-31T02:44:06.868Z,99.90
2022-07-31T02:46:38.332Z,99.90
2022-07-31T02:49:08.816Z,99.90
2022-07-31T02:51:42.862Z,99.90
2022-07-31T02:54:12.977Z,99.90
2022-07-31T02:56:43.639Z,99.90
2022-07-31T02:59:12.617Z,99.90
2022-07-31T03:01:43.249Z,99.90
2022-07-31T03:04:12.540Z,99.90
2022-07-31T03:06:41.541Z,99.90
2022-07-31T03:09:10.299Z,99.90
2022-07-31T03:11:39.204Z,99.90
2022-07-31T03:14:10.916Z,99.90
2022-07-31T03:16:43.545Z,99.90
2022-07-31T03:19:13.595Z,99.90
2022-07-31T03:21:43.478Z,99.90
2022-07-31T03:24:13.070Z,99.90
2022-07-31T03:26:42.045Z,99.90
2022-07-31T03:29:39.236Z,99.90
2022-07-31T03:32:02.616Z,99.90
2022-07-31T03:34:31.697Z,99.90
2022-07-31T03:37:00.643Z,99.90
2022-07-31T03:39:29.832Z,99.90
2022-07-31T03:41:59.629Z,99.90
2022-07-31T03:44:29.646Z,99.90
2022-07-31T03:46:58.993Z,99.90
2022-07-31T03:49:30.603Z,99.90
2022-07-31T03:52:00.219Z,99.90
2022-07-31T03:54:29.393Z,99.90
2022-07-31T03:56:59.856Z,99.90
2022-07-31T03:59:35.345Z,99.90
2022-07-31T04:02:11.453Z,99.90
2022-07-31T04:04:42.457Z,99.90
2022-07-31T04:07:11.277Z,99.90
2022-07-31T04:09:40.208Z,99.90
2022-07-31T04:12:09.409Z,99.90
2022-07-31T04:14:38.022Z,99.90
2022-07-31T04:17:31.898Z,99.90
2022-07-31T04:20:05.590Z,99.90
2022-07-31T04:22:34.764Z,99.90
2022-07-31T04:25:04.315Z,99.90
2022-07-31T04:27:57.413Z,99.90
2022-07-31T04:30:26.933Z,99.90
2022-07-31T04:32:55.769Z,99.90
2022-07-31T04:35:26.187Z,99.90
2022-07-31T04:37:55.035Z,99.90
2022-07-31T04:40:26.718Z,99.90
2022-07-31T04:42:56.345Z,99.90
2022-07-31T04:45:25.455Z,99.90
2022-07-31T04:47:54.529Z,99.90
2022-07-31T04:50:24.975Z,99.90
2022-07-31T04:52:53.741Z,99.90
2022-07-31T04:55:23.048Z,99.90
2022-07-31T04:57:52.013Z,99.90
2022-07-31T05:00:20.809Z,99.90
2022-07-31T05:02:49.747Z,99.90
2022-07-31T05:05:37.163Z,99.90
2022-07-31T05:08:06.487Z,99.90
2022-07-31T05:10:52.693Z,99.90
2022-07-31T05:13:21.598Z,99.90
2022-07-31T05:15:50.563Z,99.90
2022-07-31T05:18:19.474Z,99.90
2022-07-31T05:20:50.193Z,99.90
2022-07-31T05:23:19.802Z,99.90
2022-07-31T05:25:48.645Z,99.90
2022-07-31T05:28:17.554Z,99.90
2022-07-31T05:30:58.872Z,99.90
2022-07-31T05:33:28.581Z,99.90
2022-07-31T05:36:05.027Z,99.90
2022-07-31T05:38:35.964Z,99.90
2022-07-31T05:41:05.405Z,99.90
2022-07-31T05:44:00.081Z,99.90
2022-07-31T05:46:34.948Z,99.90
2022-07-31T05:49:08.726Z,99.90
2022-07-31T05:51:39.310Z,99.90
2022-07-31T05:54:08.269Z,99.90
2022-07-31T05:56:37.617Z,99.90
2022-07-31T05:59:06.613Z,99.90
2022-07-31T06:01:35.799Z,99.90
2022-07-31T06:04:05.015Z,99.90
2022-07-31T06:06:34.199Z,99.90
2022-07-31T06:09:05.190Z,99.90
2022-07-31T06:11:34.232Z,99.90
2022-07-31T06:14:03.680Z,99.90
2022-07-31T06:16:33.899Z,99.90
2022-07-31T06:19:02.935Z,99.90
2022-07-31T06:21:32.004Z,99.90
2022-07-31T06:24:00.743Z,99.90
2022-07-31T06:26:33.025Z,99.90
2022-07-31T06:29:01.771Z,99.90
2022-07-31T06:31:30.567Z,99.90
2022-07-31T06:33:59.468Z,99.90
2022-07-31T06:36:28.558Z,99.90
2022-07-31T06:38:57.360Z,99.90
2022-07-31T06:41:43.920Z,99.90
2022-07-31T06:44:14.399Z,99.90
2022-07-31T06:46:49.137Z,99.90
2022-07-31T06:49:18.577Z,99.90
2022-07-31T06:51:47.223Z,99.90
2022-07-31T06:54:15.966Z,99.90
2022-07-31T06:56:45.089Z,99.90
2022-07-31T06:59:15.285Z,99.90
2022-07-31T07:02:04.189Z,99.90
2022-07-31T07:05:04.508Z,99.90
2022-07-31T07:07:22.459Z,99.90
2022-07-31T07:09:51.040Z,99.90
2022-07-31T07:12:19.910Z,99.90
2022-07-31T07:14:52.625Z,99.90
2022-07-31T07:17:29.035Z,99.90
2022-07-31T07:20:02.421Z,99.90
2022-07-31T07:22:32.689Z,99.90
2022-07-31T07:25:02.194Z,99.90
2022-07-31T07:28:30.691Z,99.90
2022-07-31T07:31:01.171Z,99.90
2022-07-31T07:33:39.650Z,99.90
2022-07-31T07:36:23.452Z,99.90
2022-07-31T07:38:55.756Z,99.90
2022-07-31T07:41:25.294Z,99.90
2022-07-31T07:43:54.308Z,99.90
2022-07-31T07:46:25.268Z,99.90
2022-07-31T07:48:54.137Z,99.90
2022-07-31T07:51:23.149Z,99.90
2022-07-31T07:53:54.311Z,99.90
2022-07-31T07:56:23.187Z,99.90
2022-07-31T07:58:51.945Z,99.90
2022-07-31T08:01:20.997Z,99.90
2022-07-31T08:03:52.292Z,99.90
2022-07-31T08:06:23.339Z,99.90
2022-07-31T08:09:16.956Z,99.90
2022-07-31T08:11:45.438Z,99.90
2022-07-31T08:14:15.200Z,99.90
2022-07-31T08:16:44.054Z,99.90
2022-07-31T08:19:14.036Z,99.90
2022-07-31T08:21:42.653Z,99.90
2022-07-31T08:24:11.484Z,99.90
2022-07-31T08:26:58.337Z,99.90
2022-07-31T08:29:28.879Z,99.90
2022-07-31T08:31:57.571Z,99.90
2022-07-31T08:34:31.308Z,99.90
2022-07-31T08:37:50.455Z,99.90
2022-07-31T08:39:50.979Z,99.90
2022-07-31T08:42:20.819Z,99.90
2022-07-31T08:45:07.763Z,99.90
2022-07-31T08:47:37.385Z,99.90
2022-07-31T08:50:10.350Z,99.90
2022-07-31T08:52:41.827Z,99.90
2022-07-31T08:55:11.805Z,99.90
2022-07-31T08:58:25.607Z,99.90
2022-07-31T09:00:54.766Z,99.90
2022-07-31T09:03:23.981Z,99.90
2022-07-31T09:05:54.085Z,99.90
2022-07-31T09:08:24.088Z,99.90
2022-07-31T09:11:06.100Z,99.90
2022-07-31T09:13:35.966Z,99.90
2022-07-31T09:16:05.949Z,99.90
2022-07-31T09:18:35.157Z,99.90
2022-07-31T09:21:07.569Z,99.90
2022-07-31T09:23:47.475Z,99.90
2022-07-31T09:26:16.994Z,99.90
2022-07-31T09:28:48.915Z,99.90
2022-07-31T09:31:17.797Z,99.90
2022-07-31T09:33:48.019Z,99.90
2022-07-31T09:36:23.781Z,99.90
2022-07-31T09:38:53.030Z,99.90
2022-07-31T09:41:55.911Z,99.90
2022-07-31T09:44:11.908Z,99.90
2022-07-31T09:46:41.304Z,99.90
2022-07-31T09:49:10.338Z,99.90
2022-07-31T09:51:45.345Z,99.90
2022-07-31T09:54:38.364Z,99.90
2022-07-31T09:57:13.639Z,99.90
2022-07-31T09:59:42.592Z,99.90
2022-07-31T10:02:15.547Z,99.90
2022-07-31T10:04:47.702Z,99.90
2022-07-31T10:07:31.444Z,99.90
2022-07-31T10:10:05.015Z,99.90
2022-07-31T10:12:41.433Z,99.90
2022-07-31T10:15:14.332Z,99.90
2022-07-31T10:17:48.339Z,99.90
2022-07-31T10:20:21.751Z,99.90
2022-07-31T10:23:00.117Z,99.90
2022-07-31T10:25:31.810Z,99.90
2022-07-31T10:28:01.310Z,99.90
2022-07-31T10:30:29.926Z,99.90
2022-07-31T10:32:59.318Z,99.90
2022-07-31T10:35:28.685Z,99.90
2022-07-31T10:38:09.282Z,99.90
2022-07-31T10:40:46.064Z,99.90
2022-07-31T10:43:20.887Z,99.90
2022-07-31T10:45:51.967Z,99.90
2022-07-31T10:48:21.943Z,99.90
2022-07-31T10:51:02.247Z,99.90
2022-07-31T10:53:49.994Z,99.90
2022-07-31T10:56:19.977Z,99.90
2022-07-31T10:58:53.893Z,99.90
2022-07-31T11:01:22.792Z,99.90
2022-07-31T11:04:00.137Z,99.90
2022-07-31T11:06:39.800Z,99.90
2022-07-31T11:09:09.960Z,99.90
2022-07-31T11:11:39.304Z,99.90
2022-07-31T11:14:07.877Z,99.90
2022-07-31T11:16:36.560Z,99.90
2022-07-31T11:19:08.701Z,99.90
2022-07-31T11:21:40.276Z,99.90
2022-07-31T11:24:19.494Z,99.90
2022-07-31T11:26:52.083Z,99.90
2022-07-31T11:30:01.612Z,99.90
2022-07-31T11:32:25.717Z,99.90
2022-07-31T11:34:57.913Z,99.90
2022-07-31T11:37:46.570Z,99.90
2022-07-31T11:40:22.497Z,99.90
2022-07-31T11:43:24.727Z,99.90
2022-07-31T11:45:50.075Z,99.90
2022-07-31T11:48:21.749Z,99.90
2022-07-31T11:50:51.623Z,99.90
2022-07-31T11:53:22.696Z,99.90
2022-07-31T11:55:56.752Z,99.90
2022-07-31T11:58:28.043Z,99.90
2022-07-31T12:00:59.007Z,99.80
2022-07-31T12:03:31.885Z,99.80
2022-07-31T12:06:01.525Z,99.20
2022-07-31T12:08:30.959Z,99.10
2022-07-31T12:11:03.172Z,97.80
2022-07-31T12:13:32.810Z,97.50
2022-07-31T12:16:06.492Z,95.60
2022-07-31T12:18:48.226Z,93.00
2022-07-31T12:21:18.378Z,94.20
2022-07-31T12:23:49.506Z,96.60
2022-07-31T12:26:27.809Z,96.30
2022-07-31T12:29:02.340Z,95.40
2022-07-31T12:31:44.635Z,95.40
2022-07-31T12:34:13.912Z,96.50
2022-07-31T12:36:42.844Z,96.20
2022-07-31T12:39:13.595Z,95.40
2022-07-31T12:41:46.864Z,96.20
2022-07-31T12:44:21.532Z,96.10
2022-07-31T12:46:51.877Z,94.30
2022-07-31T12:49:45.786Z,95.70
2022-07-31T12:52:14.382Z,95.50
2022-07-31T12:54:43.214Z,95.80
2022-07-31T12:57:14.017Z,96.80
2022-07-31T12:59:42.931Z,97.00
2022-07-31T13:02:15.782Z,96.20
2022-07-31T13:04:44.841Z,95.00
2022-07-31T13:07:14.883Z,94.20
2022-07-31T13:09:43.454Z,92.60
2022-07-31T13:12:34.315Z,93.80
2022-07-31T13:15:03.483Z,93.90
2022-07-31T13:17:32.113Z,93.00
2022-07-31T13:20:00.979Z,95.80
2022-07-31T13:22:29.606Z,94.70
2022-07-31T13:25:09.751Z,92.80
2022-07-31T13:27:41.450Z,93.70
2022-07-31T13:30:11.930Z,95.00
2022-07-31T13:32:40.610Z,94.00
2022-07-31T13:35:24.052Z,92.70
2022-07-31T13:37:56.996Z,92.70
2022-07-31T13:40:39.652Z,92.80
2022-07-31T13:43:10.112Z,93.30
2022-07-31T13:46:04.144Z,90.90
2022-07-31T13:48:33.414Z,90.50
2022-07-31T13:51:02.494Z,90.30
2022-07-31T13:53:31.063Z,91.50
2022-07-31T13:56:00.214Z,91.20
2022-07-31T13:58:30.220Z,91.70
2022-07-31T14:01:04.344Z,92.60
2022-07-31T14:03:35.352Z,92.30
2022-07-31T14:06:05.804Z,91.20
2022-07-31T14:08:49.978Z,92.10
2022-07-31T14:11:19.455Z,92.70
2022-07-31T14:13:49.363Z,93.50
2022-07-31T14:16:18.039Z,91.80
2022-07-31T14:18:47.101Z,93.50
2022-07-31T14:21:16.387Z,92.70
2022-07-31T14:23:45.376Z,93.30
2022-07-31T14:26:13.948Z,91.60
2022-07-31T14:28:42.600Z,91.60
2022-07-31T14:31:12.521Z,91.80
2022-07-31T14:33:41.104Z,91.20
2022-07-31T14:36:09.787Z,90.20
2022-07-31T14:38:38.838Z,90.90
2022-07-31T14:41:07.968Z,91.20
2022-07-31T14:43:36.555Z,90.70
2022-07-31T14:46:07.129Z,91.40
2022-07-31T14:48:37.192Z,91.10
2022-07-31T14:51:05.732Z,91.90
2022-07-31T14:53:34.386Z,90.40
2022-07-31T14:56:12.292Z,90.00
2022-07-31T14:58:58.114Z,91.30
2022-07-31T15:01:30.441Z,90.20
2022-07-31T15:04:01.236Z,89.30
2022-07-31T15:06:55.940Z,89.20
2022-07-31T15:09:28.302Z,90.30
2022-07-31T15:12:00.122Z,87.40
2022-07-31T15:14:30.649Z,86.90
2022-07-31T15:16:59.625Z,86.90
2022-07-31T15:19:29.826Z,88.40
2022-07-31T15:22:11.193Z,88.60
2022-07-31T15:24:49.036Z,89.60
2022-07-31T15:27:19.282Z,90.20
2022-07-31T15:30:02.022Z,90.40
2022-07-31T15:32:37.650Z,90.50
2022-07-31T15:35:10.781Z,91.00
2022-07-31T15:37:41.498Z,91.90
2022-07-31T15:40:14.358Z,92.20
2022-07-31T15:42:46.137Z,92.50
2022-07-31T15:45:17.065Z,92.90
2022-07-31T15:47:47.432Z,93.70
2022-07-31T15:50:20.338Z,94.00
2022-07-31T15:52:49.322Z,94.30
2022-07-31T15:55:18.152Z,93.50
2022-07-31T15:57:46.829Z,94.00
2022-07-31T16:00:16.434Z,93.70
2022-07-31T16:02:45.565Z,94.70
2022-07-31T16:05:21.581Z,95.00
2022-07-31T16:08:32.746Z,95.10
2022-07-31T16:10:54.897Z,95.10
2022-07-31T16:13:24.948Z,93.70
2022-07-31T16:15:53.719Z,93.80
2022-07-31T16:18:22.512Z,93.20
2022-07-31T16:20:53.089Z,92.90
2022-07-31T16:23:21.946Z,93.80
2022-07-31T16:25:50.623Z,94.80
2022-07-31T16:28:19.278Z,94.90
2022-07-31T16:30:48.172Z,94.30
2022-07-31T16:33:17.201Z,94.60
2022-07-31T16:35:45.779Z,93.80
2022-07-31T16:38:15.844Z,93.10
2022-07-31T16:40:45.113Z,92.60
2022-07-31T16:43:50.053Z,94.00
2022-07-31T16:46:04.172Z,94.00
2022-07-31T16:48:32.942Z,94.50
2022-07-31T16:51:02.431Z,94.40
2022-07-31T16:54:11.051Z,94.80
2022-07-31T16:56:22.536Z,95.10
2022-07-31T16:58:54.293Z,95.20
2022-07-31T17:01:57.310Z,96.20
2022-07-31T17:04:14.473Z,96.80
2022-07-31T17:06:43.545Z,98.40
2022-07-31T17:09:16.806Z,98.60
2022-07-31T17:11:51.957Z,98.90
2022-07-31T17:14:28.043Z,99.90
2022-07-31T17:16:57.237Z,99.90
2022-07-31T17:19:41.913Z,99.90
2022-07-31T17:22:17.557Z,99.90
2022-07-31T17:24:51.810Z,99.90
2022-07-31T17:27:21.664Z,99.90
2022-07-31T17:29:50.410Z,99.90
2022-07-31T17:32:20.157Z,99.90
2022-07-31T17:34:50.299Z,99.90
2022-07-31T17:37:19.990Z,99.90
2022-07-31T17:39:56.239Z,99.90
2022-07-31T17:42:29.857Z,99.90
2022-07-31T17:45:02.140Z,99.90
2022-07-31T17:47:31.393Z,99.90
2022-07-31T17:50:00.069Z,99.90
2022-07-31T17:52:28.756Z,99.90
2022-07-31T17:54:59.282Z,99.90
2022-07-31T17:57:30.562Z,99.90
2022-07-31T18:00:00.165Z,99.90
2022-07-31T18:02:29.327Z,99.90
2022-07-31T18:04:58.110Z,99.90
2022-07-31T18:07:28.394Z,99.90
2022-07-31T18:10:00.837Z,99.90
2022-07-31T18:12:29.452Z,99.90
2022-07-31T18:15:18.330Z,99.90
2022-07-31T18:17:50.533Z,99.90
2022-07-31T18:20:21.787Z,99.90
2022-07-31T18:22:51.142Z,99.90
2022-07-31T18:25:21.650Z,99.90
2022-07-31T18:27:50.405Z,99.90
2022-07-31T18:30:19.604Z,99.90
2022-07-31T18:32:48.486Z,99.90
2022-07-31T18:35:17.098Z,99.90
2022-07-31T18:37:46.202Z,99.90
2022-07-31T18:40:15.181Z,99.90
2022-07-31T18:42:46.112Z,99.90
2022-07-31T18:45:14.698Z,99.90
2022-07-31T18:47:43.666Z,99.90
2022-07-31T18:51:01.467Z,99.90
2022-07-31T18:53:01.694Z,99.90
2022-07-31T18:55:30.943Z,99.90
2022-07-31T18:58:01.072Z,99.90
2022-07-31T19:00:33.333Z,99.90
2022-07-31T19:03:02.159Z,99.90
2022-07-31T19:06:23.450Z,99.90
2022-07-31T19:08:52.478Z,99.90
2022-07-31T19:11:23.344Z,99.90
2022-07-31T19:13:54.178Z,99.90
2022-07-31T19:16:23.005Z,99.90
2022-07-31T19:18:53.251Z,99.90
2022-07-31T19:21:42.086Z,99.90
2022-07-31T19:24:11.163Z,99.90
2022-07-31T19:26:39.906Z,99.90
2022-07-31T19:29:10.130Z,99.90
2022-07-31T19:31:38.801Z,99.90
2022-07-31T19:34:07.661Z,99.90
2022-07-31T19:36:36.639Z,99.90
2022-07-31T19:39:07.458Z,99.90
2022-07-31T19:41:36.766Z,99.90
2022-07-31T19:44:07.369Z,99.90
2022-07-31T19:46:38.099Z,99.90
2022-07-31T19:49:07.463Z,99.90
2022-07-31T19:51:37.333Z,99.90
2022-07-31T19:54:06.606Z,99.90
2022-07-31T19:56:38.442Z,99.90
2022-07-31T19:59:07.673Z,99.90
2022-07-31T20:01:59.005Z,99.90
2022-07-31T20:04:29.052Z,99.90
2022-07-31T20:06:59.382Z,99.90
2022-07-31T20:09:28.516Z,99.90
2022-07-31T20:11:58.325Z,99.90
2022-07-31T20:14:28.914Z,99.90
2022-07-31T20:17:01.913Z,99.90
2022-07-31T20:19:31.964Z,99.90
2022-07-31T20:22:02.379Z,99.90
2022-07-31T20:24:31.782Z,99.90
2022-07-31T20:27:02.355Z,99.90
2022-07-31T20:29:33.897Z,99.90
2022-07-31T20:32:05.549Z,99.90
2022-07-31T20:34:35.814Z,99.90
2022-07-31T20:37:07.509Z,99.90
2022-07-31T20:39:37.448Z,99.90
2022-07-31T20:42:08.331Z,99.90
2022-07-31T20:44:39.134Z,99.90
2022-07-31T20:47:10.211Z,99.90
2022-07-31T20:49:39.425Z,99.90
2022-07-31T20:52:10.719Z,99.90
2022-07-31T20:54:41.415Z,99.90
2022-07-31T20:57:11.510Z,99.90
2022-07-31T20:59:40.811Z,99.90
2022-07-31T21:02:11.352Z,99.90
2022-07-31T21:04:39.879Z,99.90
2022-07-31T21:07:08.709Z,99.90
2022-07-31T21:09:38.744Z,99.90
2022-07-31T21:12:32.443Z,99.90
2022-07-31T21:15:01.134Z,99.90
2022-07-31T21:17:31.385Z,99.90
2022-07-31T21:20:05.069Z,99.90
2022-07-31T21:22:33.868Z,99.90
2022-07-31T21:25:04.665Z,99.90
2022-07-31T21:27:34.841Z,99.90
2022-07-31T21:30:05.002Z,99.90
2022-07-31T21:32:35.947Z,99.90
2022-07-31T21:35:06.966Z,99.90
2022-07-31T21:37:40.120Z,99.90
2022-07-31T21:40:10.891Z,99.90
2022-07-31T21:42:43.462Z,99.90
2022-07-31T21:45:14.140Z,99.90
2022-07-31T21:47:53.140Z,99.90
2022-07-31T21:50:29.358Z,99.90
2022-07-31T21:52:58.538Z,99.90
2022-07-31T21:55:27.247Z,99.90
2022-07-31T21:58:21.516Z,99.90
2022-07-31T22:00:50.492Z,99.90
2022-07-31T22:03:20.511Z,99.90
2022-07-31T22:06:06.664Z,99.90
2022-07-31T22:08:35.602Z,99.90
2022-07-31T22:11:04.274Z,99.90
2022-07-31T22:13:33.131Z,99.90
2022-07-31T22:16:02.221Z,99.90
2022-07-31T22:18:35.821Z,99.90
2022-07-31T22:21:08.443Z,99.90
2022-07-31T22:23:37.947Z,99.90
2022-07-31T22:26:07.501Z,99.90
2022-07-31T22:28:36.787Z,99.90
2022-07-31T22:31:05.918Z,99.90
2022-07-31T22:33:36.522Z,99.90
2022-07-31T22:36:07.571Z,99.90
2022-07-31T22:38:38.387Z,99.90
2022-07-31T22:41:07.623Z,99.90
2022-07-31T22:44:10.443Z,99.90
2022-07-31T22:46:53.163Z,99.90
2022-07-31T22:49:24.220Z,99.90
2022-07-31T22:51:53.437Z,99.90
2022-07-31T22:54:22.335Z,99.90
2022-07-31T22:56:51.150Z,99.90
2022-07-31T22:59:20.049Z,99.90
2022-07-31T23:01:48.799Z,99.90
2022-07-31T23:04:17.782Z,99.90
2022-07-31T23:06:47.768Z,99.90
2022-07-31T23:09:16.776Z,99.90
2022-07-31T23:11:45.942Z,99.90
2022-07-31T23:14:14.650Z,99.90
2022-07-31T23:16:43.261Z,99.90
2022-07-31T23:19:11.881Z,99.90
2022-07-31T23:21:40.811Z,99.90
2022-07-31T23:24:12.412Z,99.90
2022-07-31T23:26:41.399Z,99.90
2022-07-31T23:29:10.151Z,99.90
2022-07-31T23:31:39.516Z,99.90
2022-07-31T23:34:10.040Z,99.90
2022-07-31T23:36:38.789Z,99.90
2022-07-31T23:39:37.967Z,99.90
2022-07-31T23:42:24.322Z,99.90
2022-07-31T23:44:53.271Z,99.90
2022-07-31T23:47:22.035Z,99.90
2022-07-31T23:49:51.638Z,99.90
2022-07-31T23:52:20.429Z,99.90
2022-07-31T23:54:50.560Z,99.90
2022-07-31T23:57:19.356Z,99.90
